Camelford, United Kingdom
Current Conditions -  °F | °C
As of 4:20 PM on Friday 21 Nov 2014 (Local Time) from EGHQ Reporting Station
Rain Showers Rain Showers  
Wind Chill: 54°   Ceiling: 400
Heat Index: 54°   Visibility: 3mi
Dew Point: 52°   Wind: 17mph
Humidity: 94%   Direction: 130°SE
Pressure: 29.8"   Gusts: NA
Location:  50.62°N, 4.68°W
Report Text: EGHQ 211620Z 13015KT 5000 VCSH BKN004 12/11 Q1009
Loading
Personal Weather Stations






























Interactive Weather Map New forecast layout! Learn more

10-Day Weather Forecast

Advertisements
Track Severe Weather on mobile